createdAt,value
2022-12-08T10:37:58.364Z,1.01
2022-12-08T10:43:01.064Z,1.04
2022-12-08T10:48:05.855Z,1.12
2022-12-08T10:53:15.347Z,1.14
2022-12-08T10:58:29.557Z,1.16
2022-12-08T11:03:35.241Z,1.20
2022-12-08T11:08:48.140Z,1.13
2022-12-08T11:13:52.185Z,1.11
2022-12-08T11:18:59.134Z,1.10
2022-12-08T11:24:21.196Z,1.08
2022-12-08T11:29:24.063Z,1.16
2022-12-08T11:34:38.062Z,1.18
2022-12-08T11:39:48.557Z,1.16
2022-12-08T11:44:56.112Z,1.11
2022-12-08T11:50:08.355Z,1.09
2022-12-08T11:55:27.647Z,1.13
2022-12-08T12:00:30.153Z,1.02
2022-12-08T12:06:46.508Z,0.95
2022-12-08T12:11:34.327Z,0.95
2022-12-08T12:16:58.715Z,0.96
2022-12-08T12:22:13.683Z,0.89
2022-12-08T12:27:28.839Z,0.90
2022-12-08T12:32:44.239Z,0.92
2022-12-08T12:37:47.874Z,1.00
2022-12-08T12:43:24.788Z,1.04
2022-12-08T12:48:28.318Z,1.00
2022-12-08T12:53:51.726Z,1.03
2022-12-08T12:58:55.911Z,1.01
2022-12-08T13:04:07.175Z,1.03
2022-12-08T13:09:21.669Z,1.04
2022-12-08T13:14:36.825Z,1.00
2022-12-08T13:19:40.946Z,1.01
2022-12-08T13:24:43.840Z,0.99
2022-12-08T13:30:26.100Z,0.93
2022-12-08T13:35:29.198Z,0.87
2022-12-08T13:40:35.401Z,0.82
2022-12-08T13:46:52.552Z,0.81
2022-12-08T13:57:05.137Z,0.83
2022-12-08T14:02:21.561Z,0.90
2022-12-08T14:07:24.777Z,0.90
2022-12-08T14:12:28.911Z,0.94
2022-12-08T14:17:33.454Z,0.95
2022-12-08T14:22:37.980Z,0.89
2022-12-08T14:27:40.732Z,0.94
2022-12-08T14:32:48.846Z,0.90
2022-12-08T14:37:55.318Z,0.98
2022-12-08T14:43:13.548Z,0.93
2022-12-08T14:48:26.526Z,0.82
2022-12-08T14:53:36.749Z,0.79
2022-12-08T14:58:39.435Z,0.79
2022-12-08T15:03:50.433Z,0.78
2022-12-08T15:08:58.584Z,0.76
2022-12-08T15:14:01.467Z,0.70
2022-12-08T15:19:16.953Z,0.59
2022-12-08T15:24:26.418Z,0.45
2022-12-08T15:29:31.298Z,0.35
2022-12-08T15:34:37.075Z,0.21
2022-12-08T15:39:39.908Z,0.08
2022-12-08T15:44:42.663Z,0.08
2022-12-08T15:49:47.345Z,0.04
2022-12-08T15:54:50.071Z,-0.06
2022-12-08T15:59:53.458Z,-0.13
2022-12-08T16:05:40.408Z,-0.21
2022-12-08T16:10:23.160Z,-0.28
2022-12-08T16:34:42.441Z,-0.38
2022-12-08T16:39:46.287Z,-0.42
2022-12-08T16:44:48.942Z,-0.48
2022-12-08T16:49:53.372Z,-0.46
2022-12-08T16:54:56.217Z,-0.50
2022-12-08T16:59:59.415Z,-0.52
2022-12-08T17:05:03.917Z,-0.49
2022-12-08T17:10:09.042Z,-0.47
2022-12-08T17:15:15.371Z,-0.51
2022-12-08T17:20:21.311Z,-0.59
2022-12-08T17:25:24.492Z,-0.69
2022-12-08T17:30:27.407Z,-0.70
2022-12-08T17:35:32.030Z,-0.71
2022-12-08T17:40:34.922Z,-0.81
2022-12-08T17:45:42.661Z,-0.84
2022-12-08T17:50:47.899Z,-0.84
2022-12-08T17:55:54.786Z,-0.82
2022-12-08T18:00:59.228Z,-0.93
2022-12-08T18:06:07.205Z,-1.08
2022-12-08T18:11:15.526Z,-1.21
2022-12-08T18:16:20.046Z,-1.37
2022-12-08T18:21:24.725Z,-1.38
2022-12-08T18:26:27.668Z,-1.40
2022-12-08T18:31:30.953Z,-1.38
2022-12-08T18:36:35.820Z,-1.23
2022-12-08T18:41:38.794Z,-1.04
2022-12-08T18:46:44.333Z,-0.91
2022-12-08T18:51:48.724Z,-0.79
2022-12-08T18:56:52.868Z,-0.81
2022-12-08T19:01:57.053Z,-0.86
2022-12-08T19:07:02.749Z,-0.81
2022-12-08T19:12:05.916Z,-0.70
2022-12-08T19:17:10.251Z,-0.63
2022-12-08T19:22:14.779Z,-0.55
2022-12-08T19:27:18.554Z,-0.52
2022-12-08T19:32:21.671Z,-0.49
2022-12-08T19:37:25.845Z,-0.46
2022-12-08T19:42:45.959Z,-0.51
2022-12-08T19:47:49.321Z,-0.58
2022-12-08T19:52:53.981Z,-0.59
2022-12-08T19:57:57.148Z,-0.55
2022-12-08T20:03:02.087Z,-0.52
2022-12-08T20:08:09.486Z,-0.51
2022-12-08T20:13:30.364Z,-0.50
2022-12-08T20:18:36.312Z,-0.49
2022-12-08T20:23:41.808Z,-0.47
2022-12-08T20:28:46.044Z,-0.43
2022-12-08T20:33:49.548Z,-0.37
2022-12-08T20:39:02.263Z,-0.33
2022-12-08T20:44:07.099Z,-0.32
2022-12-08T20:49:11.087Z,-0.31
2022-12-08T20:54:17.699Z,-0.27
2022-12-08T20:59:23.841Z,-0.24
2022-12-08T21:04:27.745Z,-0.22
2022-12-08T21:09:34.394Z,-0.19
2022-12-08T21:14:40.449Z,-0.22
2022-12-08T21:19:46.477Z,-0.25
2022-12-08T21:24:51.798Z,-0.23
2022-12-08T21:29:56.284Z,-0.23
2022-12-08T21:35:00.244Z,-0.30
2022-12-08T21:40:06.297Z,-0.38
2022-12-08T21:45:11.537Z,-0.40
2022-12-08T21:50:19.961Z,-0.38
2022-12-08T21:55:31.964Z,-0.45
2022-12-08T22:00:37.160Z,-0.43
2022-12-08T22:05:40.189Z,-0.44
2022-12-08T22:10:48.876Z,-0.42
2022-12-08T22:15:57.510Z,-0.38
2022-12-08T22:21:00.835Z,-0.35
2022-12-08T22:26:06.374Z,-0.34
2022-12-08T22:31:11.539Z,-0.39
2022-12-08T22:36:17.431Z,-0.39
2022-12-08T22:41:22.766Z,-0.34
2022-12-08T22:46:28.296Z,-0.33
2022-12-08T22:51:32.341Z,-0.34
2022-12-08T22:56:37.158Z,-0.35
2022-12-08T23:01:40.277Z,-0.37
2022-12-08T23:06:43.211Z,-0.45
2022-12-08T23:11:48.026Z,-0.53
2022-12-08T23:16:51.101Z,-0.55
2022-12-08T23:21:56.519Z,-0.51
2022-12-08T23:27:05.577Z,-0.51
2022-12-08T23:32:09.885Z,-0.47
2022-12-08T23:37:13.429Z,-0.46
2022-12-08T23:42:18.537Z,-0.49
2022-12-08T23:47:22.582Z,-0.52
2022-12-08T23:52:25.704Z,-0.60
2022-12-08T23:57:31.013Z,-0.63
